createdAt,value
2022-08-22T00:01:49.829Z,1.92
2022-08-22T00:02:53.142Z,1.95
2022-08-22T00:03:10.645Z,1.90
2022-08-22T00:04:25.618Z,1.50
2022-08-22T00:07:01.841Z,1.55
2022-08-22T00:09:46.083Z,1.55
2022-08-22T00:12:22.978Z,1.58
2022-08-22T00:14:59.893Z,1.50
2022-08-22T00:17:41.359Z,1.45
2022-08-22T00:20:15.027Z,1.23
2022-08-22T00:22:50.166Z,1.35
2022-08-22T00:25:53.649Z,1.40
2022-08-22T00:28:28.801Z,1.38
2022-08-22T00:31:03.371Z,1.65
2022-08-22T00:33:42.078Z,1.58
2022-08-22T00:36:19.331Z,1.60
2022-08-22T00:38:54.390Z,1.23
2022-08-22T00:42:29.340Z,1.52
2022-08-22T00:45:25.683Z,1.48
2022-08-22T00:48:04.309Z,1.45
2022-08-22T00:50:58.995Z,1.55
2022-08-22T00:53:44.275Z,1.55
2022-08-22T00:56:27.604Z,1.48
2022-08-22T00:59:23.241Z,1.70
2022-08-22T01:01:58.508Z,1.40
2022-08-22T01:04:51.025Z,1.60
2022-08-22T01:07:57.559Z,1.70
2022-08-22T01:10:44.015Z,1.77
2022-08-22T01:13:33.245Z,1.42
2022-08-22T01:16:31.477Z,1.70
2022-08-22T01:19:38.575Z,1.90
2022-08-22T01:22:42.421Z,1.58
2022-08-22T01:25:42.983Z,1.50
2022-08-22T01:28:34.806Z,1.98
2022-08-22T01:31:49.151Z,2.05
2022-08-22T01:34:46.792Z,1.38
2022-08-22T01:37:43.960Z,2.08
2022-08-22T01:40:54.022Z,1.95
2022-08-22T01:43:59.947Z,1.55
2022-08-22T01:46:37.961Z,1.75
2022-08-22T01:49:14.795Z,1.48
2022-08-22T01:51:51.006Z,1.48
2022-08-22T01:54:29.611Z,1.60
2022-08-22T01:57:02.462Z,1.50
2022-08-22T01:59:42.461Z,1.42
2022-08-22T02:02:38.078Z,1.52
2022-08-22T02:05:13.798Z,1.55
2022-08-22T02:07:50.059Z,1.73
2022-08-22T02:10:23.834Z,1.38
2022-08-22T02:13:08.553Z,1.50
2022-08-22T02:15:50.947Z,1.58
2022-08-22T02:18:28.097Z,1.73
2022-08-22T02:21:03.137Z,1.45
2022-08-22T02:23:46.165Z,1.30
2022-08-22T02:26:18.612Z,1.55
2022-08-22T02:28:57.205Z,1.45
2022-08-22T02:31:40.119Z,1.48
2022-08-22T02:34:34.774Z,1.70
2022-08-22T02:37:09.558Z,1.85
2022-08-22T02:39:45.469Z,1.90
2022-08-22T02:42:23.557Z,1.80
2022-08-22T02:44:59.533Z,2.00
2022-08-22T02:47:34.261Z,1.80
2022-08-22T02:50:12.666Z,2.20
2022-08-22T02:52:54.008Z,2.10
2022-08-22T02:55:47.604Z,2.60
2022-08-22T02:58:24.419Z,1.95
2022-08-22T03:01:16.304Z,1.90
2022-08-22T03:03:47.323Z,1.73
2022-08-22T03:06:41.541Z,2.03
2022-08-22T03:09:24.747Z,1.80
2022-08-22T03:12:04.964Z,2.30
2022-08-22T03:14:40.060Z,2.00
2022-08-22T03:17:16.309Z,2.13
2022-08-22T03:19:56.250Z,2.03
2022-08-22T03:22:32.399Z,1.80
2022-08-22T03:25:13.077Z,2.10
2022-08-22T03:27:49.924Z,2.28
2022-08-22T03:30:21.198Z,2.05
2022-08-22T03:32:53.870Z,1.95
2022-08-22T03:35:31.033Z,2.05
2022-08-22T03:38:14.667Z,1.95
2022-08-22T03:41:06.849Z,2.03
2022-08-22T03:43:59.215Z,1.98
2022-08-22T03:46:55.846Z,2.20
2022-08-22T03:50:01.209Z,1.90
2022-08-22T03:53:13.798Z,1.90
2022-08-22T03:56:24.042Z,1.70
2022-08-22T03:59:23.626Z,2.25
2022-08-22T04:02:43.026Z,2.20
2022-08-22T04:05:40.938Z,2.47
2022-08-22T04:08:50.542Z,2.17
2022-08-22T04:11:46.219Z,2.15
2022-08-22T04:14:41.242Z,1.92
2022-08-22T04:17:32.175Z,2.35
2022-08-22T04:20:41.189Z,2.00
2022-08-22T04:24:04.311Z,2.05
2022-08-22T04:26:42.066Z,2.05
2022-08-22T04:29:19.814Z,1.90
2022-08-22T04:31:55.459Z,2.30
2022-08-22T04:34:30.657Z,1.90
2022-08-22T04:37:06.709Z,1.80
2022-08-22T04:39:41.094Z,2.15
2022-08-22T04:42:32.403Z,2.17
2022-08-22T04:45:06.824Z,1.88
2022-08-22T04:47:40.343Z,2.20
2022-08-22T04:50:16.221Z,2.10
2022-08-22T04:53:04.766Z,2.10
2022-08-22T04:55:41.083Z,2.25
2022-08-22T04:58:23.158Z,2.13
2022-08-22T05:00:58.422Z,2.17
2022-08-22T05:03:30.907Z,2.58
2022-08-22T05:06:01.714Z,1.92
2022-08-22T05:08:34.018Z,1.90
2022-08-22T05:11:04.827Z,2.10
2022-08-22T05:13:39.159Z,1.95
2022-08-22T05:16:13.294Z,2.22
2022-08-22T05:18:47.810Z,2.10
2022-08-22T05:21:19.898Z,2.08
2022-08-22T05:23:53.111Z,2.40
2022-08-22T05:26:23.141Z,2.25
2022-08-22T05:28:57.132Z,2.28
2022-08-22T05:31:30.429Z,2.35
2022-08-22T05:34:04.605Z,2.35
2022-08-22T05:36:35.667Z,2.13
2022-08-22T05:39:08.431Z,1.90
2022-08-22T05:41:39.139Z,2.25
2022-08-22T05:44:18.123Z,2.15
2022-08-22T05:46:49.955Z,2.20
2022-08-22T05:49:23.103Z,2.28
2022-08-22T05:52:07.986Z,2.45
2022-08-22T05:54:45.316Z,1.63
2022-08-22T05:57:23.661Z,2.28
2022-08-22T05:59:59.359Z,2.10
2022-08-22T06:02:40.181Z,2.10
2022-08-22T06:05:12.169Z,1.75
2022-08-22T06:07:46.701Z,1.70
2022-08-22T06:10:23.263Z,1.92
2022-08-22T06:12:57.543Z,2.10
2022-08-22T06:15:35.402Z,1.80
2022-08-22T06:18:07.058Z,1.95
2022-08-22T06:20:41.057Z,2.08
2022-08-22T06:23:10.115Z,1.85
2022-08-22T06:25:41.870Z,2.20
2022-08-22T06:28:12.662Z,2.25
2022-08-22T06:30:41.758Z,2.58
2022-08-22T06:33:13.361Z,2.35
2022-08-22T06:36:05.457Z,2.05
2022-08-22T06:38:40.674Z,1.92
2022-08-22T06:41:11.116Z,2.08
2022-08-22T06:43:43.542Z,1.85
2022-08-22T06:46:16.553Z,2.10
2022-08-22T06:48:46.086Z,2.35
2022-08-22T06:51:19.123Z,2.00
2022-08-22T06:53:49.678Z,2.08
2022-08-22T06:56:22.912Z,1.90
2022-08-22T06:58:53.981Z,1.92
2022-08-22T07:01:26.224Z,1.42
2022-08-22T07:03:59.343Z,1.88
2022-08-22T07:06:35.706Z,2.20
2022-08-22T07:09:06.204Z,2.10
2022-08-22T07:11:39.722Z,1.80
2022-08-22T07:14:11.576Z,1.65
2022-08-22T07:16:43.393Z,1.75
2022-08-22T07:19:24.474Z,1.60
2022-08-22T07:21:54.568Z,2.03
2022-08-22T07:24:25.776Z,1.60
2022-08-22T07:27:05.977Z,1.67
2022-08-22T07:29:43.836Z,1.70
2022-08-22T07:32:17.934Z,1.92
2022-08-22T07:35:02.009Z,2.20
2022-08-22T07:37:52.056Z,1.70
2022-08-22T07:40:27.133Z,1.70
2022-08-22T07:43:00.425Z,1.83
2022-08-22T07:45:36.279Z,1.80
2022-08-22T07:48:25.103Z,1.55
2022-08-22T07:51:08.478Z,1.30
2022-08-22T07:53:42.815Z,1.80
2022-08-22T07:56:15.546Z,1.52
2022-08-22T07:58:45.784Z,1.35
2022-08-22T08:01:18.885Z,1.40
2022-08-22T08:03:55.202Z,1.30
2022-08-22T08:06:25.633Z,1.73
2022-08-22T08:08:56.870Z,1.60
2022-08-22T08:11:28.978Z,1.40
2022-08-22T08:14:01.785Z,1.75
2022-08-22T08:16:34.895Z,1.60
2022-08-22T08:19:04.586Z,1.50
2022-08-22T08:21:40.164Z,1.27
2022-08-22T08:24:16.993Z,1.30
2022-08-22T08:27:06.109Z,1.25
2022-08-22T08:29:36.294Z,1.27
2022-08-22T08:32:07.809Z,1.38
2022-08-22T08:34:38.444Z,1.25
2022-08-22T08:37:13.902Z,1.38
2022-08-22T08:39:50.744Z,1.30
2022-08-22T08:43:03.488Z,1.10
2022-08-22T08:45:49.458Z,1.02
2022-08-22T08:48:45.074Z,1.30
2022-08-22T08:51:26.957Z,1.10
2022-08-22T08:54:27.697Z,1.40
2022-08-22T08:57:04.693Z,0.90
2022-08-22T08:59:49.391Z,1.65
2022-08-22T09:02:34.928Z,1.08
2022-08-22T09:05:27.122Z,1.20
2022-08-22T09:08:25.277Z,1.00
2022-08-22T09:11:12.090Z,1.00
2022-08-22T09:13:56.105Z,0.93
2022-08-22T09:16:45.088Z,1.05
2022-08-22T09:19:48.370Z,0.80
2022-08-22T09:22:58.918Z,0.90
2022-08-22T09:25:38.615Z,1.00
2022-08-22T09:28:15.927Z,1.08
2022-08-22T09:30:58.805Z,1.00
2022-08-22T09:33:39.237Z,0.80
2022-08-22T09:36:15.049Z,0.90
2022-08-22T09:38:52.805Z,0.60
2022-08-22T09:41:37.411Z,0.82
2022-08-22T09:44:16.710Z,0.80
2022-08-22T09:46:57.643Z,0.95
2022-08-22T09:49:38.067Z,1.00
2022-08-22T09:52:15.112Z,0.70
2022-08-22T09:54:47.871Z,1.00
2022-08-22T09:57:30.846Z,0.88
2022-08-22T10:00:17.139Z,0.80
2022-08-22T10:03:03.922Z,0.77
2022-08-22T10:05:44.270Z,0.95
2022-08-22T10:11:18.994Z,1.00
2022-08-22T10:14:01.323Z,0.80
2022-08-22T10:17:02.231Z,1.10
2022-08-22T10:19:38.192Z,1.20
2022-08-22T10:22:21.993Z,0.90
2022-08-22T10:25:02.071Z,0.70
2022-08-22T10:27:46.479Z,0.70
2022-08-22T10:30:19.366Z,0.80
2022-08-22T10:32:52.751Z,0.73
2022-08-22T10:35:33.741Z,0.70
2022-08-22T10:38:12.411Z,0.90
2022-08-22T10:40:48.670Z,0.90
2022-08-22T10:43:29.175Z,1.08
2022-08-22T10:46:06.780Z,0.82
2022-08-22T10:48:59.526Z,0.80
2022-08-22T10:51:45.699Z,0.80
2022-08-22T10:54:32.867Z,0.88
2022-08-22T10:57:13.090Z,0.98
2022-08-22T10:59:46.875Z,0.63
2022-08-22T11:02:39.025Z,0.77
2022-08-22T11:05:27.726Z,0.80
2022-08-22T11:08:29.901Z,1.00
2022-08-22T11:11:15.142Z,0.77
2022-08-22T11:14:01.377Z,0.90
2022-08-22T11:16:42.204Z,0.95
2022-08-22T11:19:29.748Z,0.90
2022-08-22T11:22:06.515Z,0.80
2022-08-22T11:25:08.135Z,0.80
2022-08-22T11:27:48.842Z,0.80
2022-08-22T11:30:21.887Z,0.85
2022-08-22T11:33:46.773Z,1.08
2022-08-22T11:36:30.903Z,0.90
2022-08-22T11:39:13.762Z,0.90
2022-08-22T11:42:00.570Z,0.90
2022-08-22T11:44:34.360Z,0.95
2022-08-22T11:47:09.902Z,0.70
2022-08-22T11:49:53.274Z,1.30
2022-08-22T11:52:28.057Z,0.82
2022-08-22T11:55:07.487Z,0.73
2022-08-22T11:57:39.398Z,1.30
2022-08-22T12:00:32.890Z,1.08
2022-08-22T12:03:29.560Z,0.98
2022-08-22T12:06:06.381Z,0.93
2022-08-22T12:09:11.498Z,1.10
2022-08-22T12:11:46.261Z,0.77
2022-08-22T12:14:27.079Z,0.90
2022-08-22T12:17:11.068Z,0.73
2022-08-22T12:20:16.055Z,0.90
2022-08-22T12:23:11.512Z,0.80
2022-08-22T12:25:56.567Z,0.80
2022-08-22T12:28:36.405Z,0.93
2022-08-22T12:31:13.246Z,0.70
2022-08-22T12:33:56.336Z,0.95
2022-08-22T12:36:51.282Z,0.90
2022-08-22T12:40:01.593Z,1.10
2022-08-22T12:42:55.120Z,0.90
2022-08-22T12:45:43.058Z,0.65
2022-08-22T12:48:29.197Z,0.77
2022-08-22T12:51:17.754Z,0.80
2022-08-22T12:54:26.739Z,0.98
2022-08-22T12:57:04.277Z,0.80
2022-08-22T12:59:47.117Z,0.65
2022-08-22T13:02:20.125Z,0.60
2022-08-22T13:04:54.022Z,0.70
2022-08-22T13:07:29.112Z,0.75
2022-08-22T13:10:03.173Z,0.90
2022-08-22T13:12:36.431Z,1.15
2022-08-22T13:15:23.142Z,0.95
2022-08-22T13:17:53.221Z,0.88
2022-08-22T13:20:26.817Z,0.88
2022-08-22T13:22:57.355Z,0.82
2022-08-22T13:25:28.295Z,0.80
2022-08-22T13:27:59.453Z,0.85
2022-08-22T13:30:32.942Z,0.82
2022-08-22T13:33:09.589Z,0.88
2022-08-22T13:35:51.721Z,0.90
2022-08-22T13:38:26.635Z,0.95
2022-08-22T13:40:56.703Z,1.15
2022-08-22T13:43:29.784Z,1.02
2022-08-22T13:46:01.909Z,0.80
2022-08-22T13:48:47.302Z,0.90
2022-08-22T13:51:23.860Z,1.10
2022-08-22T13:54:10.811Z,1.02
2022-08-22T13:56:48.006Z,0.80
2022-08-22T13:59:50.321Z,0.80
2022-08-22T14:02:53.184Z,0.90
2022-08-22T14:05:26.333Z,0.90
2022-08-22T14:08:12.490Z,1.00
2022-08-22T14:10:50.509Z,1.15
2022-08-22T14:13:37.464Z,1.10
2022-08-22T14:16:10.415Z,1.00
2022-08-22T14:18:46.046Z,1.17
2022-08-22T14:21:40.487Z,1.15
2022-08-22T14:24:20.029Z,1.00
2022-08-22T14:26:59.374Z,1.27
2022-08-22T14:29:51.207Z,1.25
2022-08-22T14:32:42.048Z,1.10
2022-08-22T14:35:23.265Z,1.25
2022-08-22T14:38:20.598Z,1.02
2022-08-22T14:41:00.114Z,1.00
2022-08-22T14:43:56.928Z,1.10
2022-08-22T14:46:30.243Z,1.50
2022-08-22T14:49:26.949Z,1.20
2022-08-22T14:52:03.181Z,1.35
2022-08-22T14:54:35.409Z,1.30
2022-08-22T14:57:10.365Z,1.30
2022-08-22T14:59:50.534Z,1.10
2022-08-22T15:02:26.470Z,0.98
2022-08-22T15:04:56.556Z,1.45
2022-08-22T15:07:27.067Z,1.23
2022-08-22T15:10:01.097Z,1.20
2022-08-22T15:12:34.977Z,1.70
2022-08-22T15:15:09.329Z,1.27
2022-08-22T15:17:44.426Z,1.55
2022-08-22T15:20:27.856Z,1.40
2022-08-22T15:22:58.070Z,1.08
2022-08-22T15:25:33.413Z,1.13
2022-08-22T15:28:05.882Z,1.35
2022-08-22T15:30:44.355Z,1.33
2022-08-22T15:33:22.896Z,1.23
2022-08-22T15:35:53.434Z,1.40
2022-08-22T15:38:32.091Z,1.30
2022-08-22T15:41:31.459Z,1.33
2022-08-22T15:44:09.081Z,1.30
2022-08-22T15:46:56.958Z,1.15
2022-08-22T15:49:29.301Z,1.10
2022-08-22T15:52:11.305Z,1.40
2022-08-22T15:55:15.973Z,1.30
2022-08-22T15:57:51.694Z,1.40
2022-08-22T16:00:32.990Z,1.45
2022-08-22T16:03:09.182Z,1.10
2022-08-22T16:05:55.233Z,1.35
2022-08-22T16:08:28.567Z,1.20
2022-08-22T16:11:22.900Z,1.30
2022-08-22T16:14:23.091Z,1.27
2022-08-22T16:16:59.973Z,1.38
2022-08-22T16:19:32.466Z,0.93
2022-08-22T16:22:07.640Z,1.50
2022-08-22T16:25:14.405Z,0.95
2022-08-22T16:28:01.527Z,1.10
2022-08-22T16:30:37.367Z,1.00
2022-08-22T16:33:07.112Z,1.10
2022-08-22T16:36:23.530Z,1.00
2022-08-22T16:38:56.418Z,1.10
2022-08-22T16:41:34.731Z,1.33
2022-08-22T16:44:26.967Z,1.33
2022-08-22T16:46:56.457Z,1.05
2022-08-22T16:49:28.677Z,0.90
2022-08-22T16:52:35.644Z,1.02
2022-08-22T16:55:06.037Z,1.00
2022-08-22T16:57:59.361Z,0.93
2022-08-22T17:00:49.716Z,1.40
2022-08-22T17:03:27.945Z,1.17
2022-08-22T17:06:05.064Z,0.90
2022-08-22T17:08:50.598Z,1.10
2022-08-22T17:11:31.818Z,1.27
2022-08-22T17:14:17.656Z,1.33
2022-08-22T17:17:02.091Z,1.30
2022-08-22T17:19:44.081Z,1.00
2022-08-22T17:22:19.173Z,1.25
2022-08-22T17:24:56.087Z,1.30
2022-08-22T17:27:31.415Z,1.25
2022-08-22T17:30:09.237Z,1.20
2022-08-22T17:32:59.813Z,1.50
2022-08-22T17:35:41.657Z,1.33
2022-08-22T17:38:18.149Z,1.23
2022-08-22T17:40:56.510Z,1.45
2022-08-22T17:43:49.035Z,1.55
2022-08-22T17:46:41.011Z,1.50
2022-08-22T17:49:26.705Z,1.55
2022-08-22T17:52:01.326Z,1.48
2022-08-22T17:54:40.406Z,1.40
2022-08-22T17:57:13.336Z,1.77
2022-08-22T17:59:50.671Z,1.58
2022-08-22T18:02:23.771Z,1.30
2022-08-22T18:05:03.027Z,1.20
2022-08-22T18:07:39.430Z,1.38
2022-08-22T18:10:14.847Z,1.75
2022-08-22T18:12:51.738Z,1.20
2022-08-22T18:15:26.346Z,1.30
2022-08-22T18:18:00.546Z,1.40
2022-08-22T18:20:35.555Z,1.33
2022-08-22T18:23:21.279Z,1.13
2022-08-22T18:26:05.173Z,1.40
2022-08-22T18:28:41.915Z,1.40
2022-08-22T18:31:38.150Z,1.35
2022-08-22T18:34:17.213Z,1.38
2022-08-22T18:36:55.444Z,1.17
2022-08-22T18:39:26.531Z,1.27
2022-08-22T18:42:04.829Z,1.30
2022-08-22T18:44:38.463Z,1.30
2022-08-22T18:47:16.119Z,1.27
2022-08-22T18:49:54.233Z,1.30
2022-08-22T18:52:38.546Z,1.25
2022-08-22T18:55:31.671Z,1.50
2022-08-22T18:58:44.358Z,1.40
2022-08-22T19:01:36.005Z,1.40
2022-08-22T19:04:34.164Z,1.52
2022-08-22T19:07:25.010Z,1.13
2022-08-22T19:10:27.765Z,1.90
2022-08-22T19:13:10.648Z,1.20
2022-08-22T19:15:54.892Z,1.85
2022-08-22T19:18:39.195Z,1.50
2022-08-22T19:21:37.747Z,1.17
2022-08-22T19:24:08.489Z,1.30
2022-08-22T19:26:41.624Z,2.15
2022-08-22T19:29:42.894Z,1.38
2022-08-22T19:32:13.752Z,1.90
2022-08-22T19:34:46.831Z,1.40
2022-08-22T19:37:32.231Z,1.83
2022-08-22T19:40:05.081Z,1.80
2022-08-22T19:42:41.676Z,1.50
2022-08-22T19:45:21.624Z,1.05
2022-08-22T19:48:01.414Z,1.48
2022-08-22T19:50:36.489Z,1.02
2022-08-22T19:53:37.678Z,1.42
2022-08-22T19:56:12.788Z,1.50
2022-08-22T19:58:56.617Z,1.35
2022-08-22T20:01:40.250Z,1.20
2022-08-22T20:04:20.660Z,1.40
2022-08-22T20:06:57.801Z,1.10
2022-08-22T20:09:40.061Z,1.40
2022-08-22T20:12:15.949Z,1.10
2022-08-22T20:14:48.163Z,1.23
2022-08-22T20:17:41.189Z,1.40
2022-08-22T20:20:19.086Z,1.23
2022-08-22T20:22:52.751Z,1.27
2022-08-22T20:25:42.066Z,1.30
2022-08-22T20:28:38.841Z,1.40
2022-08-22T20:31:12.693Z,1.27
2022-08-22T20:33:46.051Z,1.27
2022-08-22T20:36:28.819Z,1.50
2022-08-22T20:39:01.177Z,1.10
2022-08-22T20:41:33.713Z,1.35
2022-08-22T20:44:06.303Z,1.30
2022-08-22T20:46:47.715Z,1.17
2022-08-22T20:49:24.622Z,1.13
2022-08-22T20:51:55.106Z,1.10
2022-08-22T20:54:26.182Z,1.30
2022-08-22T20:56:56.629Z,1.10
2022-08-22T20:59:32.147Z,1.20
2022-08-22T21:02:12.101Z,1.20
2022-08-22T21:04:49.976Z,1.13
2022-08-22T21:07:26.012Z,1.27
2022-08-22T21:10:22.303Z,1.45
2022-08-22T21:13:08.379Z,1.40
2022-08-22T21:15:39.196Z,1.05
2022-08-22T21:18:09.956Z,1.63
2022-08-22T21:20:40.034Z,1.27
2022-08-22T21:23:11.294Z,1.20
2022-08-22T21:25:52.269Z,1.23
2022-08-22T21:28:29.243Z,1.40
2022-08-22T21:30:58.245Z,1.25
2022-08-22T21:33:28.255Z,1.23
2022-08-22T21:35:58.458Z,1.60
2022-08-22T21:38:28.196Z,1.33
2022-08-22T21:41:02.874Z,1.20
2022-08-22T21:43:34.115Z,1.08
2022-08-22T21:46:02.133Z,1.25
2022-08-22T21:48:38.086Z,1.10
2022-08-22T21:51:31.834Z,1.27
2022-08-22T21:54:39.935Z,1.40
2022-08-22T21:57:35.896Z,1.10
2022-08-22T22:00:09.011Z,1.25
2022-08-22T22:02:41.874Z,1.48
2022-08-22T22:05:15.938Z,1.48
2022-08-22T22:07:47.423Z,1.20
2022-08-22T22:10:18.394Z,1.10
2022-08-22T22:12:49.201Z,1.10
2022-08-22T22:15:19.417Z,1.40
2022-08-22T22:17:47.562Z,1.20
2022-08-22T22:20:19.827Z,1.25
2022-08-22T22:22:48.359Z,1.15
2022-08-22T22:25:38.727Z,1.20
2022-08-22T22:28:09.210Z,1.17
2022-08-22T22:30:37.478Z,1.60
2022-08-22T22:33:06.374Z,1.50
2022-08-22T22:35:38.233Z,1.20
2022-08-22T22:38:06.621Z,0.95
2022-08-22T22:40:35.197Z,1.40
2022-08-22T22:43:03.416Z,1.40
2022-08-22T22:45:31.513Z,1.45
2022-08-22T22:47:59.745Z,1.33
2022-08-22T22:50:28.345Z,1.48
2022-08-22T22:52:57.754Z,1.80
2022-08-22T22:55:26.033Z,1.40
2022-08-22T22:57:59.142Z,1.20
2022-08-22T23:00:29.199Z,1.38
2022-08-22T23:03:00.182Z,1.23
2022-08-22T23:05:28.337Z,1.30
2022-08-22T23:07:58.304Z,1.27
2022-08-22T23:10:27.414Z,1.15
2022-08-22T23:12:55.649Z,1.20
2022-08-22T23:15:23.750Z,1.40
2022-08-22T23:17:52.370Z,1.55
2022-08-22T23:20:20.907Z,1.27
2022-08-22T23:22:49.163Z,1.45
2022-08-22T23:25:18.726Z,1.60
2022-08-22T23:27:58.568Z,1.30
2022-08-22T23:30:26.637Z,1.25
2022-08-22T23:32:56.052Z,1.40
2022-08-22T23:35:24.097Z,1.40
2022-08-22T23:37:52.745Z,1.20
2022-08-22T23:40:22.905Z,1.30
2022-08-22T23:42:50.965Z,1.40
2022-08-22T23:45:19.111Z,1.20
2022-08-22T23:47:47.561Z,0.93
2022-08-22T23:50:16.258Z,1.33
2022-08-22T23:52:44.404Z,1.30
2022-08-22T23:55:12.556Z,1.20
2022-08-22T23:57:42.019Z,1.23
